sensor_id;sensor_type;location;lat;lon;timestamp;noise_LAeq;noise_LA_min;noise_LA_max;noise_LA01;noise_LA95
61286;Laerm;56412;53.148;8.204;2022-10-16T00:00:52;52.96;48.06;57.22;;
61286;Laerm;56412;53.148;8.204;2022-10-16T00:03:17;54.04;49.56;59.14;;
61286;Laerm;56412;53.148;8.204;2022-10-16T00:05:43;53.32;49.18;66.40;;
61286;Laerm;56412;53.148;8.204;2022-10-16T00:08:11;53.51;45.03;72.18;;
61286;Laerm;56412;53.148;8.204;2022-10-16T00:10:36;51.89;44.57;68.81;;
61286;Laerm;56412;53.148;8.204;2022-10-16T00:13:03;50.78;45.22;65.28;;
61286;Laerm;56412;53.148;8.204;2022-10-16T00:15:28;51.63;43.64;67.55;;
61286;Laerm;56412;53.148;8.204;2022-10-16T00:17:54;61.06;43.31;77.05;;
61286;Laerm;56412;53.148;8.204;2022-10-16T00:20:19;60.94;44.18;79.30;;
61286;Laerm;56412;53.148;8.204;2022-10-16T00:22:44;65.78;46.08;76.62;;
61286;Laerm;56412;53.148;8.204;2022-10-16T00:25:09;60.19;45.40;78.91;;
61286;Laerm;56412;53.148;8.204;2022-10-16T00:27:35;58.72;48.55;69.20;;
61286;Laerm;56412;53.148;8.204;2022-10-16T00:30:00;59.58;46.67;77.22;;
61286;Laerm;56412;53.148;8.204;2022-10-16T00:32:26;56.69;45.43;76.59;;
61286;Laerm;56412;53.148;8.204;2022-10-16T00:34:51;61.63;44.75;77.97;;
61286;Laerm;56412;53.148;8.204;2022-10-16T00:37:18;60.22;44.09;79.59;;
61286;Laerm;56412;53.148;8.204;2022-10-16T00:39:43;59.46;43.79;78.17;;
61286;Laerm;56412;53.148;8.204;2022-10-16T00:42:14;50.36;42.28;66.46;;
61286;Laerm;56412;53.148;8.204;2022-10-16T00:44:55;52.63;44.28;67.78;;
61286;Laerm;56412;53.148;8.204;2022-10-16T00:47:31;50.23;44.11;62.73;;
61286;Laerm;56412;53.148;8.204;2022-10-16T00:50:16;49.51;43.74;65.28;;
61286;Laerm;56412;53.148;8.204;2022-10-16T00:52:46;46.57;42.35;62.26;;
61286;Laerm;56412;53.148;8.204;2022-10-16T00:55:14;43.53;42.35;54.59;;
61286;Laerm;56412;53.148;8.204;2022-10-16T00:57:39;43.48;42.41;49.14;;
61286;Laerm;56412;53.148;8.204;2022-10-16T01:00:09;43.47;42.06;47.29;;
61286;Laerm;56412;53.148;8.204;2022-10-16T01:02:35;43.34;42.28;46.51;;
61286;Laerm;56412;53.148;8.204;2022-10-16T01:05:00;43.50;42.28;45.77;;
61286;Laerm;56412;53.148;8.204;2022-10-16T01:10:17;43.65;42.49;52.42;;
61286;Laerm;56412;53.148;8.204;2022-10-16T01:12:57;43.75;42.21;46.17;;
61286;Laerm;56412;53.148;8.204;2022-10-16T01:15:43;54.39;42.56;81.29;;
61286;Laerm;56412;53.148;8.204;2022-10-16T01:18:15;49.96;42.76;73.64;;
61286;Laerm;56412;53.148;8.204;2022-10-16T01:20:55;53.89;43.07;79.55;;
61286;Laerm;56412;53.148;8.204;2022-10-16T01:25:57;47.05;42.82;58.18;;
61286;Laerm;56412;53.148;8.204;2022-10-16T01:28:33;51.62;43.13;76.93;;
61286;Laerm;56412;53.148;8.204;2022-10-16T01:31:00;53.59;43.31;76.92;;
61286;Laerm;56412;53.148;8.204;2022-10-16T01:33:42;48.16;43.89;71.78;;
61286;Laerm;56412;53.148;8.204;2022-10-16T01:36:13;52.46;42.42;77.89;;
61286;Laerm;56412;53.148;8.204;2022-10-16T01:38:42;43.89;42.35;57.39;;
61286;Laerm;56412;53.148;8.204;2022-10-16T01:41:17;43.97;42.63;47.33;;
61286;Laerm;56412;53.148;8.204;2022-10-16T01:43:53;43.59;42.49;53.14;;
61286;Laerm;56412;53.148;8.204;2022-10-16T01:46:22;43.79;42.42;47.44;;
61286;Laerm;56412;53.148;8.204;2022-10-16T01:48:50;43.57;42.49;47.03;;
61286;Laerm;56412;53.148;8.204;2022-10-16T01:51:16;43.52;41.98;44.79;;
61286;Laerm;56412;53.148;8.204;2022-10-16T01:53:48;43.60;42.35;48.68;;
61286;Laerm;56412;53.148;8.204;2022-10-16T01:56:17;47.14;42.56;74.21;;
61286;Laerm;56412;53.148;8.204;2022-10-16T01:59:07;55.32;43.07;74.06;;
61286;Laerm;56412;53.148;8.204;2022-10-16T02:01:37;48.88;46.32;52.31;;
61286;Laerm;56412;53.148;8.204;2022-10-16T02:04:15;49.87;46.23;64.29;;
61286;Laerm;56412;53.148;8.204;2022-10-16T02:06:42;50.88;46.46;59.67;;
61286;Laerm;56412;53.148;8.204;2022-10-16T02:09:08;54.10;47.74;58.98;;
61286;Laerm;56412;53.148;8.204;2022-10-16T02:11:34;55.88;48.44;62.03;;
61286;Laerm;56412;53.148;8.204;2022-10-16T02:14:03;58.33;42.76;81.46;;
61286;Laerm;56412;53.148;8.204;2022-10-16T02:16:47;60.70;44.41;74.25;;
61286;Laerm;56412;53.148;8.204;2022-10-16T02:19:13;58.70;42.54;76.73;;
61286;Laerm;56412;53.148;8.204;2022-10-16T02:21:44;48.86;42.56;73.98;;
61286;Laerm;56412;53.148;8.204;2022-10-16T02:27:06;50.80;42.49;77.78;;
61286;Laerm;56412;53.148;8.204;2022-10-16T02:29:38;48.87;42.49;70.84;;
61286;Laerm;56412;53.148;8.204;2022-10-16T02:32:07;49.50;45.64;55.91;;
61286;Laerm;56412;53.148;8.204;2022-10-16T02:34:34;48.56;43.01;67.67;;
61286;Laerm;56412;53.148;8.204;2022-10-16T02:37:01;45.54;43.74;50.93;;
61286;Laerm;56412;53.148;8.204;2022-10-16T02:39:29;46.72;42.21;64.62;;
61286;Laerm;56412;53.148;8.204;2022-10-16T02:41:55;47.81;42.28;72.70;;
61286;Laerm;56412;53.148;8.204;2022-10-16T02:44:20;52.54;42.49;69.01;;
61286;Laerm;56412;53.148;8.204;2022-10-16T02:46:45;45.83;42.06;59.28;;
61286;Laerm;56412;53.148;8.204;2022-10-16T02:49:11;48.47;42.63;59.14;;
61286;Laerm;56412;53.148;8.204;2022-10-16T02:51:36;45.90;42.56;62.19;;
61286;Laerm;56412;53.148;8.204;2022-10-16T02:54:02;43.59;42.35;47.24;;
61286;Laerm;56412;53.148;8.204;2022-10-16T02:56:28;43.63;42.15;48.58;;
61286;Laerm;56412;53.148;8.204;2022-10-16T02:58:54;43.50;42.13;56.83;;
61286;Laerm;56412;53.148;8.204;2022-10-16T03:01:20;46.69;42.21;66.55;;
61286;Laerm;56412;53.148;8.204;2022-10-16T03:03:45;59.05;42.35;69.97;;
61286;Laerm;56412;53.148;8.204;2022-10-16T03:06:10;53.14;42.13;70.01;;
61286;Laerm;56412;53.148;8.204;2022-10-16T03:08:36;43.51;41.49;58.62;;
61286;Laerm;56412;53.148;8.204;2022-10-16T03:11:01;58.41;42.35;71.27;;
61286;Laerm;56412;53.148;8.204;2022-10-16T03:13:26;46.56;42.13;56.02;;
61286;Laerm;56412;53.148;8.204;2022-10-16T03:15:52;51.14;42.69;54.53;;
61286;Laerm;56412;53.148;8.204;2022-10-16T03:18:17;50.47;42.56;67.15;;
61286;Laerm;56412;53.148;8.204;2022-10-16T03:20:43;51.12;42.28;61.06;;
61286;Laerm;56412;53.148;8.204;2022-10-16T03:23:08;51.89;42.06;70.66;;
61286;Laerm;56412;53.148;8.204;2022-10-16T03:25:34;46.19;42.13;72.72;;
61286;Laerm;56412;53.148;8.204;2022-10-16T03:27:59;52.28;42.56;76.11;;
61286;Laerm;56412;53.148;8.204;2022-10-16T03:30:24;53.19;42.48;74.95;;
61286;Laerm;56412;53.148;8.204;2022-10-16T03:32:50;47.88;42.28;71.05;;
61286;Laerm;56412;53.148;8.204;2022-10-16T03:35:19;55.79;43.36;76.09;;
61286;Laerm;56412;53.148;8.204;2022-10-16T03:37:44;48.95;45.18;56.47;;
61286;Laerm;56412;53.148;8.204;2022-10-16T03:40:10;47.01;44.18;54.93;;
61286;Laerm;56412;53.148;8.204;2022-10-16T03:42:35;46.68;44.09;55.54;;
61286;Laerm;56412;53.148;8.204;2022-10-16T03:45:00;46.97;43.36;57.36;;
61286;Laerm;56412;53.148;8.204;2022-10-16T03:47:26;46.14;43.58;56.73;;
61286;Laerm;56412;53.148;8.204;2022-10-16T03:49:51;47.25;43.13;55.17;;
61286;Laerm;56412;53.148;8.204;2022-10-16T03:52:17;48.14;43.42;54.74;;
61286;Laerm;56412;53.148;8.204;2022-10-16T03:54:42;46.98;43.48;54.66;;
61286;Laerm;56412;53.148;8.204;2022-10-16T03:57:08;45.91;43.36;53.65;;
61286;Laerm;56412;53.148;8.204;2022-10-16T03:59:33;46.15;43.58;54.93;;
61286;Laerm;56412;53.148;8.204;2022-10-16T04:01:58;45.40;43.45;55.23;;
61286;Laerm;56412;53.148;8.204;2022-10-16T04:04:24;45.49;43.69;53.60;;
61286;Laerm;56412;53.148;8.204;2022-10-16T04:06:50;45.62;43.48;53.58;;
61286;Laerm;56412;53.148;8.204;2022-10-16T04:09:15;45.42;43.45;53.07;;
61286;Laerm;56412;53.148;8.204;2022-10-16T04:11:40;59.45;42.13;73.93;;
61286;Laerm;56412;53.148;8.204;2022-10-16T04:14:06;48.54;42.06;69.90;;
61286;Laerm;56412;53.148;8.204;2022-10-16T04:16:31;45.49;42.56;63.88;;
61286;Laerm;56412;53.148;8.204;2022-10-16T04:18:56;54.20;43.42;67.78;;
61286;Laerm;56412;53.148;8.204;2022-10-16T04:21:21;52.46;43.31;62.75;;
61286;Laerm;56412;53.148;8.204;2022-10-16T04:23:47;45.48;43.13;68.24;;
61286;Laerm;56412;53.148;8.204;2022-10-16T04:26:12;47.74;42.89;75.65;;
61286;Laerm;56412;53.148;8.204;2022-10-16T04:28:38;50.83;43.69;71.23;;
61286;Laerm;56412;53.148;8.204;2022-10-16T04:31:04;48.25;43.31;66.76;;
61286;Laerm;56412;53.148;8.204;2022-10-16T04:33:29;44.98;42.69;58.95;;
61286;Laerm;56412;53.148;8.204;2022-10-16T04:35:59;45.02;42.76;63.87;;
61286;Laerm;56412;53.148;8.204;2022-10-16T04:38:25;43.81;42.42;57.21;;
61286;Laerm;56412;53.148;8.204;2022-10-16T04:40:50;48.35;42.56;61.17;;
61286;Laerm;56412;53.148;8.204;2022-10-16T04:43:16;50.42;44.75;56.90;;
61286;Laerm;56412;53.148;8.204;2022-10-16T04:45:41;48.67;42.49;64.86;;
61286;Laerm;56412;53.148;8.204;2022-10-16T04:48:06;45.17;42.63;55.48;;
61286;Laerm;56412;53.148;8.204;2022-10-16T04:50:32;45.37;43.53;50.43;;
61286;Laerm;56412;53.148;8.204;2022-10-16T04:52:57;57.26;42.69;80.33;;
61286;Laerm;56412;53.148;8.204;2022-10-16T04:55:22;60.52;42.63;73.38;;
61286;Laerm;56412;53.148;8.204;2022-10-16T04:57:47;62.93;50.55;71.77;;
61286;Laerm;56412;53.148;8.204;2022-10-16T05:00:13;61.72;42.95;79.43;;
61286;Laerm;56412;53.148;8.204;2022-10-16T05:02:38;50.50;42.69;72.17;;
61286;Laerm;56412;53.148;8.204;2022-10-16T05:05:04;49.89;42.63;66.67;;
61286;Laerm;56412;53.148;8.204;2022-10-16T05:07:29;52.46;42.06;72.16;;
61286;Laerm;56412;53.148;8.204;2022-10-16T05:09:54;48.94;42.82;69.67;;
61286;Laerm;56412;53.148;8.204;2022-10-16T05:12:20;58.44;42.49;82.12;;
61286;Laerm;56412;53.148;8.204;2022-10-16T05:14:45;43.99;42.35;50.95;;
61286;Laerm;56412;53.148;8.204;2022-10-16T05:17:10;44.65;42.63;51.58;;
61286;Laerm;56412;53.148;8.204;2022-10-16T05:19:36;45.17;42.82;53.90;;
61286;Laerm;56412;53.148;8.204;2022-10-16T05:22:01;52.55;42.21;76.74;;
61286;Laerm;56412;53.148;8.204;2022-10-16T05:24:26;50.77;42.69;71.99;;
61286;Laerm;56412;53.148;8.204;2022-10-16T05:26:52;49.81;42.35;65.10;;
61286;Laerm;56412;53.148;8.204;2022-10-16T05:29:17;50.45;45.61;59.57;;
61286;Laerm;56412;53.148;8.204;2022-10-16T05:31:42;51.42;47.01;60.54;;
61286;Laerm;56412;53.148;8.204;2022-10-16T05:34:07;51.14;46.20;59.16;;
61286;Laerm;56412;53.148;8.204;2022-10-16T05:36:33;51.96;46.59;58.75;;
61286;Laerm;56412;53.148;8.204;2022-10-16T05:38:58;51.96;43.19;62.25;;
61286;Laerm;56412;53.148;8.204;2022-10-16T05:41:23;56.56;42.69;73.99;;
61286;Laerm;56412;53.148;8.204;2022-10-16T05:43:51;52.78;42.56;79.41;;
61286;Laerm;56412;53.148;8.204;2022-10-16T05:46:16;50.62;42.69;66.55;;
61286;Laerm;56412;53.148;8.204;2022-10-16T05:48:42;51.10;42.82;72.47;;
61286;Laerm;56412;53.148;8.204;2022-10-16T05:51:10;49.26;42.63;65.71;;
61286;Laerm;56412;53.148;8.204;2022-10-16T05:53:37;50.59;42.82;60.78;;
61286;Laerm;56412;53.148;8.204;2022-10-16T05:56:04;51.14;43.84;59.25;;
61286;Laerm;56412;53.148;8.204;2022-10-16T05:58:33;52.82;42.95;58.60;;
61286;Laerm;56412;53.148;8.204;2022-10-16T06:01:01;51.83;42.89;65.23;;
61286;Laerm;56412;53.148;8.204;2022-10-16T06:03:27;49.73;42.42;60.42;;
61286;Laerm;56412;53.148;8.204;2022-10-16T06:05:52;46.05;42.42;62.11;;
61286;Laerm;56412;53.148;8.204;2022-10-16T06:08:19;54.78;42.28;74.84;;
61286;Laerm;56412;53.148;8.204;2022-10-16T06:10:46;54.53;42.01;71.32;;
61286;Laerm;56412;53.148;8.204;2022-10-16T06:13:12;55.58;42.35;76.50;;
61286;Laerm;56412;53.148;8.204;2022-10-16T06:15:40;53.68;42.82;68.63;;
61286;Laerm;56412;53.148;8.204;2022-10-16T06:18:10;46.76;42.63;62.77;;
61286;Laerm;56412;53.148;8.204;2022-10-16T06:20:35;46.50;44.18;52.67;;
61286;Laerm;56412;53.148;8.204;2022-10-16T06:23:01;46.92;43.79;54.80;;
61286;Laerm;56412;53.148;8.204;2022-10-16T06:25:26;46.43;43.99;57.03;;
61286;Laerm;56412;53.148;8.204;2022-10-16T06:27:52;47.44;43.58;55.64;;
61286;Laerm;56412;53.148;8.204;2022-10-16T06:30:17;46.02;43.25;54.10;;
61286;Laerm;56412;53.148;8.204;2022-10-16T06:32:42;58.78;43.07;67.94;;
61286;Laerm;56412;53.148;8.204;2022-10-16T06:35:08;59.30;42.69;69.89;;
61286;Laerm;56412;53.148;8.204;2022-10-16T06:37:33;55.19;45.33;76.50;;
61286;Laerm;56412;53.148;8.204;2022-10-16T06:39:58;55.35;43.74;67.00;;
61286;Laerm;56412;53.148;8.204;2022-10-16T06:42:25;52.38;42.89;64.22;;
61286;Laerm;56412;53.148;8.204;2022-10-16T06:44:50;52.98;42.89;73.98;;
61286;Laerm;56412;53.148;8.204;2022-10-16T06:47:15;55.18;46.02;64.66;;
61286;Laerm;56412;53.148;8.204;2022-10-16T06:49:41;52.46;43.99;62.50;;
61286;Laerm;56412;53.148;8.204;2022-10-16T06:52:06;48.34;43.58;64.15;;
61286;Laerm;56412;53.148;8.204;2022-10-16T06:54:31;48.65;44.14;60.05;;
61286;Laerm;56412;53.148;8.204;2022-10-16T06:56:56;46.36;43.64;64.88;;
61286;Laerm;56412;53.148;8.204;2022-10-16T06:59:22;46.66;43.97;54.19;;
61286;Laerm;56412;53.148;8.204;2022-10-16T07:01:47;50.54;42.82;73.56;;
61286;Laerm;56412;53.148;8.204;2022-10-16T07:04:13;51.75;42.76;73.61;;
61286;Laerm;56412;53.148;8.204;2022-10-16T07:06:38;51.17;42.49;72.63;;
61286;Laerm;56412;53.148;8.204;2022-10-16T07:09:06;46.60;42.06;63.99;;
61286;Laerm;56412;53.148;8.204;2022-10-16T07:11:32;47.51;42.49;62.78;;
61286;Laerm;56412;53.148;8.204;2022-10-16T07:13:58;48.08;42.06;71.78;;
61286;Laerm;56412;53.148;8.204;2022-10-16T07:16:25;48.19;42.35;69.28;;
61286;Laerm;56412;53.148;8.204;2022-10-16T07:18:53;53.40;42.21;74.43;;
61286;Laerm;56412;53.148;8.204;2022-10-16T07:21:23;57.24;42.63;70.23;;
61286;Laerm;56412;53.148;8.204;2022-10-16T07:23:53;57.32;47.38;67.63;;
61286;Laerm;56412;53.148;8.204;2022-10-16T07:26:20;58.53;48.19;67.45;;
61286;Laerm;56412;53.148;8.204;2022-10-16T07:28:46;58.66;49.89;67.19;;
61286;Laerm;56412;53.148;8.204;2022-10-16T07:31:12;57.22;49.23;66.76;;
61286;Laerm;56412;53.148;8.204;2022-10-16T07:33:40;57.18;49.67;65.17;;
61286;Laerm;56412;53.148;8.204;2022-10-16T07:36:07;61.23;50.91;69.33;;
61286;Laerm;56412;53.148;8.204;2022-10-16T07:38:32;58.27;48.72;67.81;;
61286;Laerm;56412;53.148;8.204;2022-10-16T07:40:59;60.87;51.97;70.92;;
61286;Laerm;56412;53.148;8.204;2022-10-16T07:43:26;62.57;51.47;71.72;;
61286;Laerm;56412;53.148;8.204;2022-10-16T07:45:51;63.54;50.01;71.93;;
61286;Laerm;56412;53.148;8.204;2022-10-16T07:48:17;63.78;48.88;72.77;;
61286;Laerm;56412;53.148;8.204;2022-10-16T07:50:43;62.89;53.16;71.99;;
61286;Laerm;56412;53.148;8.204;2022-10-16T07:53:09;58.01;42.69;74.25;;
61286;Laerm;56412;53.148;8.204;2022-10-16T07:55:35;57.43;46.11;66.00;;
61286;Laerm;56412;53.148;8.204;2022-10-16T07:58:00;56.09;43.89;64.79;;
61286;Laerm;56412;53.148;8.204;2022-10-16T08:00:25;50.11;42.21;75.18;;
61286;Laerm;56412;53.148;8.204;2022-10-16T08:02:51;48.56;43.89;61.09;;
61286;Laerm;56412;53.148;8.204;2022-10-16T08:05:16;48.24;43.42;61.20;;
61286;Laerm;56412;53.148;8.204;2022-10-16T08:07:41;48.52;44.75;61.96;;
61286;Laerm;56412;53.148;8.204;2022-10-16T08:10:20;48.91;42.13;64.40;;
61286;Laerm;56412;53.148;8.204;2022-10-16T08:12:45;54.46;42.63;76.97;;
61286;Laerm;56412;53.148;8.204;2022-10-16T08:15:11;49.52;41.66;65.80;;
61286;Laerm;56412;53.148;8.204;2022-10-16T08:17:37;48.77;41.98;68.02;;
61286;Laerm;56412;53.148;8.204;2022-10-16T08:20:02;50.71;42.42;67.77;;
61286;Laerm;56412;53.148;8.204;2022-10-16T08:22:28;52.67;42.28;69.01;;
61286;Laerm;56412;53.148;8.204;2022-10-16T08:24:53;47.45;42.95;56.28;;
61286;Laerm;56412;53.148;8.204;2022-10-16T08:27:19;47.20;43.25;56.96;;
61286;Laerm;56412;53.148;8.204;2022-10-16T08:29:44;48.22;43.94;56.91;;
61286;Laerm;56412;53.148;8.204;2022-10-16T08:32:09;49.97;43.64;59.64;;
61286;Laerm;56412;53.148;8.204;2022-10-16T08:34:35;49.25;43.58;63.15;;
61286;Laerm;56412;53.148;8.204;2022-10-16T08:37:00;52.34;42.49;75.67;;
61286;Laerm;56412;53.148;8.204;2022-10-16T08:39:25;58.02;44.83;71.65;;
61286;Laerm;56412;53.148;8.204;2022-10-16T08:44:57;57.73;43.53;71.05;;
61286;Laerm;56412;53.148;8.204;2022-10-16T08:47:48;57.52;43.99;73.46;;
61286;Laerm;56412;53.148;8.204;2022-10-16T08:50:22;60.84;42.95;81.98;;
61286;Laerm;56412;53.148;8.204;2022-10-16T08:52:49;54.56;42.13;77.20;;
61286;Laerm;56412;53.148;8.204;2022-10-16T08:55:30;58.67;42.82;80.38;;
61286;Laerm;56412;53.148;8.204;2022-10-16T08:57:57;55.97;47.29;77.24;;
61286;Laerm;56412;53.148;8.204;2022-10-16T09:00:24;56.07;47.53;68.79;;
61286;Laerm;56412;53.148;8.204;2022-10-16T09:03:00;54.84;46.54;67.84;;
61286;Laerm;56412;53.148;8.204;2022-10-16T09:11:12;52.36;46.62;62.46;;
61286;Laerm;56412;53.148;8.204;2022-10-16T09:16:32;53.10;44.87;73.40;;
61286;Laerm;56412;53.148;8.204;2022-10-16T09:19:17;54.37;45.14;73.71;;
61286;Laerm;56412;53.148;8.204;2022-10-16T09:21:46;54.89;43.89;80.11;;
61286;Laerm;56412;53.148;8.204;2022-10-16T09:24:18;62.65;43.53;82.42;;
61286;Laerm;56412;53.148;8.204;2022-10-16T09:26:44;57.72;43.13;80.12;;
61286;Laerm;56412;53.148;8.204;2022-10-16T09:29:15;54.90;47.88;63.96;;
61286;Laerm;56412;53.148;8.204;2022-10-16T09:31:41;61.23;49.35;68.35;;
61286;Laerm;56412;53.148;8.204;2022-10-16T09:34:18;63.08;49.17;72.58;;
61286;Laerm;56412;53.148;8.204;2022-10-16T09:36:46;58.18;48.04;72.58;;
61286;Laerm;56412;53.148;8.204;2022-10-16T09:39:12;53.50;49.05;57.52;;
61286;Laerm;56412;53.148;8.204;2022-10-16T09:41:40;54.85;49.53;59.68;;
61286;Laerm;56412;53.148;8.204;2022-10-16T09:44:33;55.82;50.17;62.71;;
61286;Laerm;56412;53.148;8.204;2022-10-16T09:47:03;56.42;51.12;62.03;;
61286;Laerm;56412;53.148;8.204;2022-10-16T09:49:29;58.53;53.35;63.70;;
61286;Laerm;56412;53.148;8.204;2022-10-16T09:52:13;60.93;52.07;67.47;;
61286;Laerm;56412;53.148;8.204;2022-10-16T09:54:49;58.11;52.27;64.14;;
61286;Laerm;56412;53.148;8.204;2022-10-16T09:57:14;57.72;52.79;70.24;;
61286;Laerm;56412;53.148;8.204;2022-10-16T10:00:08;56.89;51.53;63.35;;
61286;Laerm;56412;53.148;8.204;2022-10-16T10:02:35;57.27;52.27;62.73;;
61286;Laerm;56412;53.148;8.204;2022-10-16T10:05:02;60.16;44.79;79.65;;
61286;Laerm;56412;53.148;8.204;2022-10-16T10:07:35;55.15;48.32;70.65;;
61286;Laerm;56412;53.148;8.204;2022-10-16T10:10:05;51.26;45.71;65.16;;
61286;Laerm;56412;53.148;8.204;2022-10-16T10:12:32;61.12;44.54;81.39;;
61286;Laerm;56412;53.148;8.204;2022-10-16T10:15:20;62.74;43.01;79.05;;
61286;Laerm;56412;53.148;8.204;2022-10-16T10:20:33;62.01;47.01;78.78;;
61286;Laerm;56412;53.148;8.204;2022-10-16T10:23:00;59.96;48.80;66.46;;
61286;Laerm;56412;53.148;8.204;2022-10-16T10:25:29;60.65;46.33;74.98;;
61286;Laerm;56412;53.148;8.204;2022-10-16T10:33:31;62.83;43.89;85.58;;
61286;Laerm;56412;53.148;8.204;2022-10-16T10:36:16;58.59;42.69;74.47;;
61286;Laerm;56412;53.148;8.204;2022-10-16T10:38:50;47.38;43.89;51.95;;
61286;Laerm;56412;53.148;8.204;2022-10-16T10:47:59;47.03;44.63;54.30;;
61286;Laerm;56412;53.148;8.204;2022-10-16T10:53:27;49.49;45.25;53.69;;
61286;Laerm;56412;53.148;8.204;2022-10-16T10:56:28;50.30;46.67;65.91;;
61286;Laerm;56412;53.148;8.204;2022-10-16T10:59:02;56.59;44.23;72.88;;
61286;Laerm;56412;53.148;8.204;2022-10-16T11:05:02;63.39;44.14;81.21;;
61286;Laerm;56412;53.148;8.204;2022-10-16T11:07:39;60.17;44.04;79.46;;
61286;Laerm;56412;53.148;8.204;2022-10-16T11:10:19;65.60;42.42;79.70;;
61286;Laerm;56412;53.148;8.204;2022-10-16T11:12:49;64.59;43.69;92.84;;
61286;Laerm;56412;53.148;8.204;2022-10-16T11:15:25;66.07;43.07;87.89;;
61286;Laerm;56412;53.148;8.204;2022-10-16T11:20:25;62.42;46.57;82.69;;
61286;Laerm;56412;53.148;8.204;2022-10-16T11:23:09;66.90;43.79;90.28;;
61286;Laerm;56412;53.148;8.204;2022-10-16T11:25:39;66.44;44.06;88.41;;
61286;Laerm;56412;53.148;8.204;2022-10-16T11:28:20;64.59;45.43;92.32;;
61286;Laerm;56412;53.148;8.204;2022-10-16T11:31:02;57.68;53.12;64.94;;
61286;Laerm;56412;53.148;8.204;2022-10-16T11:33:34;57.38;53.45;67.04;;
61286;Laerm;56412;53.148;8.204;2022-10-16T11:41:44;56.35;51.86;69.94;;
61286;Laerm;56412;53.148;8.204;2022-10-16T11:46:48;56.26;51.47;75.76;;
61286;Laerm;56412;53.148;8.204;2022-10-16T11:49:21;55.41;51.98;67.07;;
61286;Laerm;56412;53.148;8.204;2022-10-16T11:52:06;54.30;49.47;67.04;;
61286;Laerm;56412;53.148;8.204;2022-10-16T11:54:51;53.08;48.63;67.79;;
61286;Laerm;56412;53.148;8.204;2022-10-16T11:57:28;53.34;49.70;67.45;;
61286;Laerm;56412;53.148;8.204;2022-10-16T12:00:14;52.35;48.96;67.56;;
61286;Laerm;56412;53.148;8.204;2022-10-16T12:02:51;51.69;48.51;68.12;;
61286;Laerm;56412;53.148;8.204;2022-10-16T12:05:28;51.81;47.92;65.41;;
61286;Laerm;56412;53.148;8.204;2022-10-16T12:08:13;53.16;46.17;73.36;;
61286;Laerm;56412;53.148;8.204;2022-10-16T12:10:42;63.57;45.93;88.02;;
61286;Laerm;56412;53.148;8.204;2022-10-16T12:16:24;58.17;42.28;85.27;;
61286;Laerm;56412;53.148;8.204;2022-10-16T12:19:12;48.36;41.82;62.69;;
61286;Laerm;56412;53.148;8.204;2022-10-16T12:21:39;49.39;41.82;61.29;;
61286;Laerm;56412;53.148;8.204;2022-10-16T12:24:05;49.83;41.66;61.35;;
61286;Laerm;56412;53.148;8.204;2022-10-16T12:26:33;50.41;41.66;63.65;;
61286;Laerm;56412;53.148;8.204;2022-10-16T12:29:55;54.14;40.93;69.95;;
61286;Laerm;56412;53.148;8.204;2022-10-16T12:32:28;57.27;41.31;71.36;;
61286;Laerm;56412;53.148;8.204;2022-10-16T12:34:54;62.26;41.74;80.73;;
61286;Laerm;56412;53.148;8.204;2022-10-16T12:37:28;59.45;41.40;72.13;;
61286;Laerm;56412;53.148;8.204;2022-10-16T12:39:56;58.88;41.49;72.04;;
61286;Laerm;56412;53.148;8.204;2022-10-16T12:42:32;57.47;41.49;71.35;;
61286;Laerm;56412;53.148;8.204;2022-10-16T12:44:58;57.61;43.01;69.94;;
61286;Laerm;56412;53.148;8.204;2022-10-16T12:49:59;62.68;43.42;71.45;;
61286;Laerm;56412;53.148;8.204;2022-10-16T12:52:42;62.31;44.32;72.19;;
61286;Laerm;56412;53.148;8.204;2022-10-16T12:55:16;63.18;44.18;72.25;;
61286;Laerm;56412;53.148;8.204;2022-10-16T13:03:26;65.94;42.82;74.30;;
61286;Laerm;56412;53.148;8.204;2022-10-16T13:08:59;72.39;42.56;88.76;;
61286;Laerm;56412;53.148;8.204;2022-10-16T13:20:12;48.03;44.91;53.95;;
61286;Laerm;56412;53.148;8.204;2022-10-16T13:23:13;49.87;45.52;54.05;;
61286;Laerm;56412;53.148;8.204;2022-10-16T13:25:46;52.79;41.82;87.35;;
61286;Laerm;56412;53.148;8.204;2022-10-16T13:28:17;47.04;42.49;60.61;;
61286;Laerm;56412;53.148;8.204;2022-10-16T13:30:52;57.27;43.65;91.98;;
61286;Laerm;56412;53.148;8.204;2022-10-16T13:33:26;51.39;47.00;59.81;;
61286;Laerm;56412;53.148;8.204;2022-10-16T13:35:56;51.46;47.40;58.28;;
61286;Laerm;56412;53.148;8.204;2022-10-16T13:38:24;66.13;48.17;71.98;;
61286;Laerm;56412;53.148;8.204;2022-10-16T13:43:18;59.32;48.30;67.22;;
61286;Laerm;56412;53.148;8.204;2022-10-16T13:45:53;60.00;52.86;67.81;;
61286;Laerm;56412;53.148;8.204;2022-10-16T13:48:18;57.91;48.08;66.08;;
61286;Laerm;56412;53.148;8.204;2022-10-16T13:50:44;60.16;48.08;68.17;;
61286;Laerm;56412;53.148;8.204;2022-10-16T13:53:14;59.52;47.90;66.55;;
61286;Laerm;56412;53.148;8.204;2022-10-16T13:55:39;56.70;48.32;64.31;;
61286;Laerm;56412;53.148;8.204;2022-10-16T13:58:12;53.31;48.34;60.10;;
61286;Laerm;56412;53.148;8.204;2022-10-16T14:00:38;53.35;47.86;60.07;;
61286;Laerm;56412;53.148;8.204;2022-10-16T14:03:07;54.78;48.83;63.32;;
61286;Laerm;56412;53.148;8.204;2022-10-16T14:05:47;54.24;48.17;61.51;;
61286;Laerm;56412;53.148;8.204;2022-10-16T14:08:14;58.32;48.43;64.21;;
61286;Laerm;56412;53.148;8.204;2022-10-16T14:10:39;60.77;48.63;64.20;;
61286;Laerm;56412;53.148;8.204;2022-10-16T14:13:06;60.60;48.65;65.04;;
61286;Laerm;56412;53.148;8.204;2022-10-16T14:15:35;60.40;48.43;66.40;;
61286;Laerm;56412;53.148;8.204;2022-10-16T14:18:02;60.19;48.04;66.41;;
61286;Laerm;56412;53.148;8.204;2022-10-16T14:20:31;61.14;50.66;65.75;;
61286;Laerm;56412;53.148;8.204;2022-10-16T14:23:16;60.53;48.65;67.61;;
61286;Laerm;56412;53.148;8.204;2022-10-16T14:25:44;59.22;48.19;65.49;;
61286;Laerm;56412;53.148;8.204;2022-10-16T14:30:53;58.14;47.53;64.21;;
61286;Laerm;56412;53.148;8.204;2022-10-16T14:38:35;58.41;48.08;64.82;;
61286;Laerm;56412;53.148;8.204;2022-10-16T14:41:03;57.23;47.64;62.16;;
61286;Laerm;56412;53.148;8.204;2022-10-16T14:43:34;57.11;47.26;64.49;;
61286;Laerm;56412;53.148;8.204;2022-10-16T14:46:02;57.97;47.72;64.25;;
61286;Laerm;56412;53.148;8.204;2022-10-16T14:48:29;58.02;47.82;64.73;;
61286;Laerm;56412;53.148;8.204;2022-10-16T14:50:55;57.07;47.64;64.15;;
61286;Laerm;56412;53.148;8.204;2022-10-16T14:53:20;56.18;47.42;62.83;;
61286;Laerm;56412;53.148;8.204;2022-10-16T14:55:45;56.54;47.64;63.38;;
61286;Laerm;56412;53.148;8.204;2022-10-16T14:58:20;57.16;48.12;64.69;;
61286;Laerm;56412;53.148;8.204;2022-10-16T15:00:46;56.23;47.70;64.38;;
61286;Laerm;56412;53.148;8.204;2022-10-16T15:03:12;55.47;47.47;62.62;;
61286;Laerm;56412;53.148;8.204;2022-10-16T15:05:37;54.45;47.42;63.12;;
61286;Laerm;56412;53.148;8.204;2022-10-16T15:08:02;52.33;47.31;58.59;;
61286;Laerm;56412;53.148;8.204;2022-10-16T15:10:30;51.25;47.17;59.13;;
61286;Laerm;56412;53.148;8.204;2022-10-16T15:12:56;49.91;47.24;57.34;;
61286;Laerm;56412;53.148;8.204;2022-10-16T15:15:36;49.55;47.15;57.41;;
61286;Laerm;56412;53.148;8.204;2022-10-16T15:18:02;49.58;47.44;56.38;;
61286;Laerm;56412;53.148;8.204;2022-10-16T15:20:30;49.68;47.44;55.49;;